Time;durP1;ratioP1;P1;durP2;ratioP2;P2;SDS_P1;SDS_P2;PMS_P1;PMS_P2;Temp;Humidity;BMP_temperature;BMP_pressure;BME280_temperature;BME280_humidity;BME280_pressure;Samples;Min_cycle;Max_cycle;Signal;HPM_P1;HPM_P2
2023/01/25 00:02:15;;;;;;;35.85;28.83;;;1.40;92.70;;;0.32;81.11;103147.22;5029745;28;20422;-70
2023/01/25 00:04:43;;;;;;;36.23;29.17;;;1.40;92.80;;;0.30;79.98;103141.13;5029510;28;20413;-71
2023/01/25 00:07:12;;;;;;;59.78;39.85;;;1.40;92.60;;;0.29;81.20;103139.38;5029343;28;20416;-71
2023/01/25 00:09:40;;;;;;;41.05;32.78;;;1.40;92.80;;;0.24;81.02;103130.72;5029394;28;20407;-71
2023/01/25 00:12:08;;;;;;;37.63;31.90;;;1.30;92.70;;;0.26;80.44;103128.94;5028924;28;20918;-71
2023/01/25 00:14:37;;;;;;;34.30;29.48;;;1.40;93.00;;;0.24;81.45;103135.97;5028963;28;20407;-70
2023/01/25 00:17:05;;;;;;;33.90;28.80;;;1.30;92.90;;;0.28;81.03;103126.25;5009629;28;20809;-71
2023/01/25 00:19:33;;;;;;;111.45;77.10;;;1.30;93.00;;;0.30;80.68;103127.97;5021474;28;20403;-71
2023/01/25 00:22:02;;;;;;;36.25;32.35;;;1.40;92.80;;;0.28;81.12;103116.56;5029455;28;20414;-70
2023/01/25 00:24:30;;;;;;;38.22;32.25;;;1.40;93.00;;;0.24;80.63;103117.53;5029216;28;20403;-70
2023/01/25 00:26:58;;;;;;;26.05;23.35;;;1.30;92.90;;;0.23;81.31;103122.88;5028711;28;20403;-70
2023/01/25 00:29:26;;;;;;;26.50;23.73;;;1.30;92.80;;;0.22;80.24;103116.72;5027584;28;20423;-71
2023/01/25 00:32:28;;;;;;;42.83;37.08;;;1.30;92.80;;;0.22;81.26;103119.38;5029189;28;20412;-72
2023/01/25 00:34:56;;;;;;;27.30;24.42;;;1.30;92.90;;;0.23;80.49;103112.31;5029099;28;20403;-70
2023/01/25 00:37:29;;;;;;;25.88;23.27;;;1.30;92.90;;;0.24;80.34;103114.06;5029435;28;20407;-71
2023/01/25 00:39:58;;;;;;;27.77;24.88;;;1.30;92.80;;;0.26;80.43;103102.59;5029393;28;20404;-70
2023/01/25 00:42:26;;;;;;;27.27;24.48;;;1.30;93.00;;;0.25;80.69;103103.47;5029175;28;20414;-71
2023/01/25 00:44:54;;;;;;;30.48;27.25;;;1.40;92.90;;;0.25;81.85;103100.84;5029189;28;20399;-70
2023/01/25 00:47:24;;;;;;;30.73;27.42;;;1.30;93.10;;;0.26;81.75;103110.50;5028905;28;20407;-70
2023/01/25 00:49:52;;;;;;;36.17;32.28;;;1.30;93.10;;;0.26;81.70;103102.59;5028844;28;20548;-69
2023/01/25 00:52:21;;;;;;;40.38;35.97;;;1.40;93.20;;;0.28;81.84;103105.16;5029025;28;20419;-69
2023/01/25 00:54:49;;;;;;;36.35;32.45;;;1.40;93.20;;;0.26;81.19;103102.59;5028601;28;20884;-70
2023/01/25 00:57:17;;;;;;;43.40;38.67;;;1.30;93.10;;;0.27;81.19;103104.31;5028517;28;20414;-70
2023/01/25 00:59:46;;;;;;;44.85;39.47;;;1.40;93.30;;;0.28;81.71;103103.41;5028532;28;20411;-71
2023/01/25 01:02:14;;;;;;;35.40;31.60;;;1.40;93.30;;;0.29;81.18;103097.25;5028662;28;20435;-70
2023/01/25 01:04:44;;;;;;;33.58;29.98;;;1.30;93.20;;;0.31;81.00;103098.06;5028735;28;20402;-70
2023/01/25 01:07:14;;;;;;;30.30;27.20;;;1.50;93.20;;;0.29;81.38;103091.97;5028233;28;20503;-70
2023/01/25 01:09:42;;;;;;;27.10;24.40;;;1.40;93.10;;;0.28;81.74;103090.22;5028329;28;20430;-69
2023/01/25 01:12:10;;;;;;;29.65;26.58;;;1.40;93.10;;;0.26;80.43;103078.88;5028468;28;20403;-69
2023/01/25 01:14:38;;;;;;;36.83;33.03;;;1.30;92.90;;;0.28;81.58;103092.84;5028629;28;20410;-70
2023/01/25 01:17:07;;;;;;;28.20;25.27;;;1.40;93.10;;;0.26;81.10;103094.69;5028300;28;20413;-72
2023/01/25 01:19:35;;;;;;;27.92;25.05;;;1.30;93.00;;;0.26;81.35;103097.31;5028140;28;20410;-71
2023/01/25 01:22:04;;;;;;;54.45;46.15;;;1.40;93.40;;;0.28;81.28;103089.34;5028325;28;20461;-70
2023/01/25 01:24:32;;;;;;;34.78;31.05;;;1.40;93.20;;;0.27;81.94;103085.88;5028093;28;20407;-71
2023/01/25 01:27:01;;;;;;;31.90;28.40;;;1.40;93.30;;;0.27;81.40;103080.63;5027441;28;20407;-71
2023/01/25 01:29:29;;;;;;;28.40;25.40;;;1.30;93.20;;;0.26;80.71;103078.88;5027966;28;20930;-71
2023/01/25 01:31:57;;;;;;;28.23;25.33;;;1.30;93.00;;;0.27;80.96;103072.72;5028270;28;20460;-70
2023/01/25 01:34:26;;;;;;;28.70;25.70;;;1.40;93.30;;;0.28;81.75;103069.16;5027433;28;20452;-70
2023/01/25 01:36:54;;;;;;;28.42;25.52;;;1.40;93.40;;;0.30;81.40;103082.31;5027075;28;20407;-71
2023/01/25 01:39:23;;;;;;;30.15;27.00;;;1.40;93.40;;;0.30;81.97;103067.38;5028014;28;20461;-71
2023/01/25 01:41:51;;;;;;;29.50;26.42;;;1.40;93.40;;;0.32;82.34;103068.19;5027915;28;20411;-70
2023/01/25 01:44:40;;;;;;;28.27;25.38;;;1.40;93.50;;;0.30;81.99;103055.94;5027989;28;20421;-71
2023/01/25 01:47:16;;;;;;;27.80;25.00;;;1.40;93.30;;;0.30;82.03;103056.81;5027760;28;20406;-70
2023/01/25 01:49:52;;;;;;;27.95;25.08;;;1.40;93.40;;;0.29;81.92;103055.09;5027894;28;20453;-70
2023/01/25 01:52:29;;;;;;;27.67;24.77;;;1.40;93.60;;;0.29;81.59;103049.81;5027823;28;20457;-71
2023/01/25 01:55:06;;;;;;;27.30;24.40;;;1.40;93.60;;;0.30;82.40;103043.66;5027813;28;20411;-71
2023/01/25 01:57:43;;;;;;;27.02;24.33;;;1.40;93.60;;;0.31;82.69;103048.00;5027489;28;20403;-70
2023/01/25 02:00:16;;;;;;;26.92;24.08;;;1.40;93.70;;;0.28;81.83;103034.91;5028017;28;20407;-70
2023/01/25 02:02:45;;;;;;;26.55;23.85;;;1.40;93.60;;;0.27;81.71;103040.22;5027737;28;20406;-71
2023/01/25 02:05:25;;;;;;;26.57;23.80;;;1.30;93.60;;;0.27;82.05;103038.47;5028052;28;20469;-70
2023/01/25 02:07:55;;;;;;;27.23;24.43;;;1.40;93.90;;;0.27;82.15;103038.47;5027807;28;20403;-71
2023/01/25 02:10:28;;;;;;;29.27;26.17;;;1.40;93.90;;;0.27;82.75;103041.09;5027646;28;20481;-70
2023/01/25 02:12:58;;;;;;;29.47;26.37;;;1.40;94.00;;;0.24;82.41;103045.56;5027806;28;20988;-70
2023/01/25 02:15:44;;;;;;;31.08;27.83;;;1.30;93.90;;;0.26;83.47;103036.72;5028024;28;20403;-71
2023/01/25 02:18:14;;;;;;;30.65;27.45;;;1.40;94.10;;;0.28;82.64;103039.28;5027365;28;20403;-70
2023/01/25 02:20:45;;;;;;;31.87;28.60;;;1.40;94.20;;;0.30;83.67;103041.00;5027449;28;20446;-72
2023/01/25 02:23:25;;;;;;;30.45;27.25;;;1.40;94.20;;;0.30;82.80;103040.16;5028087;28;20406;-71
2023/01/25 02:25:58;;;;;;;31.45;28.13;;;1.40;94.20;;;0.28;83.63;103031.41;5031574;28;20410;-69
2023/01/25 02:28:34;;;;;;;32.67;28.98;;;1.40;94.20;;;0.26;83.18;103031.44;5030959;28;20426;-70
2023/01/25 02:31:02;;;;;;;31.95;28.58;;;1.40;94.40;;;0.24;83.55;103038.50;5031216;28;21068;-70
2023/01/25 02:33:30;;;;;;;31.67;28.27;;;1.30;94.60;;;0.27;83.34;103046.38;5030444;28;20411;-69
2023/01/25 02:36:15;;;;;;;31.23;27.83;;;1.40;94.70;;;0.26;83.56;103039.34;5030581;28;20414;-70
2023/01/25 02:38:51;;;;;;;30.17;27.02;;;1.40;94.80;;;0.26;84.35;103039.34;5031270;28;20403;-71
2023/01/25 02:41:27;;;;;;;31.30;28.00;;;1.30;94.90;;;0.27;83.65;103038.47;5030978;28;20411;-70
2023/01/25 02:43:55;;;;;;;33.85;29.85;;;1.40;95.00;;;0.29;83.70;103034.00;5030989;28;20414;-70
2023/01/25 02:46:29;;;;;;;33.88;30.27;;;1.40;94.90;;;0.29;84.04;103036.63;5030728;28;20415;-70
2023/01/25 02:49:00;;;;;;;36.95;31.52;;;1.40;95.00;;;0.25;84.39;103032.34;5031249;28;20538;-70
2023/01/25 02:51:31;;;;;;;35.60;31.73;;;1.40;95.00;;;0.24;85.25;103033.25;5029963;28;20949;-71
2023/01/25 02:54:00;;;;;;;35.97;31.67;;;1.30;95.10;;;0.26;84.24;103018.28;5030339;28;21055;-70
2023/01/25 02:56:30;;;;;;;35.00;31.20;;;1.40;95.20;;;0.24;85.11;103008.69;5030333;28;20406;-70
2023/01/25 02:58:59;;;;;;;35.25;31.40;;;1.40;95.20;;;0.24;84.15;103012.16;5030531;28;20403;-71
2023/01/25 03:01:27;;;;;;;34.78;30.70;;;1.30;95.10;;;0.19;84.83;103000.03;5030767;28;20414;-71
2023/01/25 03:03:55;;;;;;;33.03;29.30;;;1.30;95.00;;;0.11;84.81;103005.47;5030263;28;20923;-70
2023/01/25 03:06:23;;;;;;;33.13;29.25;;;1.20;95.00;;;0.16;84.04;103005.38;5030362;28;20806;-70
2023/01/25 03:08:51;;;;;;;35.43;31.10;;;1.30;95.10;;;0.19;84.39;102995.63;5030494;28;20456;-70
2023/01/25 03:11:19;;;;;;;35.38;30.67;;;1.30;95.10;;;0.18;84.41;102993.88;5030416;28;20419;-71
2023/01/25 03:13:49;;;;;;;34.05;29.80;;;1.30;95.00;;;0.21;84.78;102993.81;5029358;28;20446;-71
2023/01/25 03:16:17;;;;;;;31.63;27.70;;;1.30;95.00;;;0.20;83.61;102991.22;5029737;28;20891;-71
2023/01/25 03:18:45;;;;;;;31.45;27.60;;;1.30;94.80;;;0.16;83.99;102990.44;5030588;28;20457;-71
2023/01/25 03:21:16;;;;;;;29.50;26.08;;;1.30;94.80;;;0.19;83.59;102989.50;5030732;28;20433;-71
2023/01/25 03:23:46;;;;;;;29.50;26.30;;;1.30;94.90;;;0.21;84.46;102996.44;5030625;28;20949;-71
2023/01/25 03:26:19;;;;;;;25.07;22.37;;;1.30;94.80;;;0.00;83.91;102989.09;5030603;28;20407;-71
2023/01/25 03:28:48;;;;;;;25.90;23.13;;;1.10;94.50;;;0.04;84.13;102984.59;5030977;28;20410;-71
2023/01/25 03:31:18;;;;;;;24.25;20.65;;;1.10;94.90;;;-0.02;83.76;102990.91;5030678;28;20423;-71
2023/01/25 03:33:47;;;;;;;24.55;21.75;;;1.10;94.80;;;0.00;84.59;102986.47;5030692;28;20483;-71
2023/01/25 03:36:15;;;;;;;25.52;22.70;;;1.10;94.90;;;-0.02;84.09;102993.53;5030210;28;20820;-72
2023/01/25 03:38:43;;;;;;;25.05;22.00;;;1.10;94.90;;;-0.05;84.72;102986.56;5030165;28;20414;-72
2023/01/25 03:41:13;;;;;;;24.98;22.27;;;1.10;95.00;;;0.00;84.25;102989.09;5030057;28;20942;-71
2023/01/25 03:43:41;;;;;;;26.48;23.50;;;1.10;95.10;;;0.03;85.10;102980.25;5030308;28;20430;-71
2023/01/25 03:46:11;;;;;;;28.10;24.30;;;1.10;95.20;;;0.09;84.34;102977.47;5029681;28;20660;-71
2023/01/25 03:48:39;;;;;;;27.48;23.73;;;1.20;95.20;;;0.06;83.96;102973.16;5029809;28;20403;-70
2023/01/25 03:51:09;;;;;;;26.20;23.20;;;1.20;95.10;;;0.03;83.80;102961.81;5030007;28;20419;-71
2023/01/25 03:53:37;;;;;;;25.83;23.02;;;1.10;94.90;;;0.01;84.63;102964.47;5029984;28;20408;-71
2023/01/25 03:56:08;;;;;;;25.73;22.92;;;1.10;95.00;;;-0.07;84.30;102969.94;5029982;28;20496;-70
2023/01/25 03:58:38;;;;;;;25.55;22.80;;;1.10;95.00;;;-0.12;84.62;102963.06;5029715;28;20880;-71
2023/01/25 04:01:07;;;;;;;27.13;23.40;;;1.00;95.20;;;-0.26;84.90;102965.16;5029974;28;20406;-71
2023/01/25 04:03:37;;;;;;;27.52;23.13;;;0.90;95.30;;;-0.19;85.69;102961.50;5029490;28;20439;-71
2023/01/25 04:06:06;;;;;;;26.73;23.55;;;0.90;95.70;;;-0.10;85.20;102955.97;5029348;28;20411;-70
2023/01/25 04:08:36;;;;;;;26.87;23.97;;;1.00;95.70;;;-0.05;85.18;102951.47;5029749;28;20407;-71
2023/01/25 04:11:08;;;;;;;25.65;22.85;;;1.10;95.60;;;-0.04;85.21;102951.47;5029670;28;20430;-72
2023/01/25 04:13:38;;;;;;;27.25;23.27;;;1.10;95.60;;;-0.10;85.61;102950.72;5029635;28;20399;-70
2023/01/25 04:16:10;;;;;;;26.10;22.65;;;1.00;95.70;;;-0.22;86.59;102940.50;5029365;28;20402;-71
2023/01/25 04:18:40;;;;;;;27.08;22.92;;;0.90;95.80;;;-0.15;85.66;102936.81;5029206;28;20399;-71
2023/01/25 04:21:08;;;;;;;28.40;23.58;;;1.00;96.10;;;-0.17;86.29;102936.00;5029576;28;20486;-71
2023/01/25 04:23:36;;;;;;;29.13;24.47;;;1.00;96.00;;;-0.26;86.03;102936.22;5029591;28;20498;-70
2023/01/25 04:26:07;;;;;;;30.65;25.10;;;0.90;96.00;;;-0.23;85.98;102934.38;5028957;28;20411;-70
2023/01/25 04:28:36;;;;;;;29.05;24.48;;;0.90;96.30;;;-0.22;86.80;102924.72;5028914;28;20402;-71
2023/01/25 04:31:05;;;;;;;30.77;24.40;;;0.90;96.30;;;-0.24;86.57;102931.78;5029295;28;20473;-70
2023/01/25 04:33:33;;;;;;;28.35;23.88;;;0.90;96.30;;;-0.23;87.14;102930.88;5028562;28;20846;-71
2023/01/25 04:36:04;;;;;;;27.88;23.42;;;0.90;96.40;;;-0.16;87.24;102924.56;5028403;28;20953;-71
2023/01/25 04:38:32;;;;;;;26.85;22.75;;;1.00;96.40;;;-0.12;86.97;102936.75;5028810;28;20410;-71
2023/01/25 04:41:00;;;;;;;25.73;22.02;;;1.00;96.30;;;-0.17;85.85;102933.38;5028623;28;20415;-71
2023/01/25 04:43:28;;;;;;;29.75;24.02;;;1.00;96.20;;;-0.21;87.16;102926.44;5028671;28;20422;-71
2023/01/25 04:45:56;;;;;;;28.33;22.73;;;0.90;96.40;;;-0.20;86.96;102928.16;5027792;28;20821;-71
2023/01/25 04:48:24;;;;;;;26.83;21.70;;;0.90;96.40;;;-0.19;86.19;102932.53;5028517;28;20411;-71
2023/01/25 04:50:52;;;;;;;26.98;22.80;;;1.00;96.30;;;-0.24;86.51;102923.91;5028806;28;20430;-71
2023/01/25 04:53:22;;;;;;;24.90;21.23;;;0.90;96.40;;;-0.18;86.69;102927.25;5028731;28;20411;-71
2023/01/25 04:55:50;;;;;;;27.23;22.80;;;0.90;96.40;;;-0.14;87.02;102928.03;5028101;28;20517;-71
2023/01/25 04:58:18;;;;;;;26.77;22.10;;;1.00;96.30;;;-0.17;86.21;102928.09;5028451;28;20482;-71
2023/01/25 05:00:46;;;;;;;23.85;20.17;;;1.00;96.10;;;-0.13;85.93;102920.06;5028768;28;20555;-70
2023/01/25 05:03:14;;;;;;;23.97;19.93;;;1.00;96.20;;;-0.13;86.50;102916.56;5028535;28;20442;-71
2023/01/25 05:05:47;;;;;;;26.13;21.50;;;0.90;96.10;;;-0.18;86.26;102919.34;5028197;28;20414;-70
2023/01/25 05:08:15;;;;;;;23.08;19.85;;;0.90;96.20;;;-0.15;85.69;102921.91;5028147;28;20404;-71
2023/01/25 05:10:45;;;;;;;23.02;20.10;;;0.90;96.10;;;-0.28;86.20;102916.97;5028615;28;20423;-71
2023/01/25 05:13:13;;;;;;;27.90;23.52;;;0.90;95.90;;;-0.26;85.87;102917.78;5028399;28;20922;-70
2023/01/25 05:15:41;;;;;;;23.17;19.42;;;0.90;96.30;;;-0.26;86.21;102917.78;5028260;28;20930;-70
2023/01/25 05:18:09;;;;;;;20.90;18.48;;;0.90;96.20;;;-0.42;86.70;102905.91;5028515;28;20420;-71
2023/01/25 05:20:37;;;;;;;23.25;19.33;;;0.70;96.20;;;-0.33;87.13;102910.94;5028109;28;20403;-71
2023/01/25 05:23:05;;;;;;;22.30;18.38;;;0.80;96.50;;;-0.43;86.57;102907.69;5028698;28;20468;-71
2023/01/25 05:28:20;;;;;;;23.33;19.33;;;0.80;96.40;;;-0.27;86.70;102900.25;5028026;28;20799;-71
2023/01/25 05:30:48;;;;;;;19.13;16.27;;;0.90;96.20;;;-0.39;85.95;102901.44;5026856;28;20434;-71
2023/01/25 05:33:17;;;;;;;17.25;15.43;;;0.70;96.00;;;-0.36;86.01;102901.38;5028065;28;20418;-71
2023/01/25 05:35:45;;;;;;;19.48;16.73;;;0.80;96.10;;;-0.30;85.73;102901.22;5027795;28;20910;-71
2023/01/25 05:38:13;;;;;;;21.67;17.75;;;0.80;96.10;;;-0.31;85.68;102898.63;5028114;28;20461;-69
2023/01/25 05:40:41;;;;;;;18.90;16.73;;;0.80;96.00;;;-0.27;86.18;102892.34;5028097;28;20522;-70
2023/01/25 05:43:09;;;;;;;30.92;21.58;;;0.80;95.90;;;-0.34;84.95;102894.28;5027645;28;21100;-71
2023/01/25 05:45:39;;;;;;;50.40;32.63;;;0.80;95.60;;;-0.32;85.58;102891.63;5027789;28;20757;-70
2023/01/25 05:48:07;;;;;;;29.58;21.90;;;0.80;95.80;;;-0.44;85.23;102891.91;5028227;28;20472;-71
2023/01/25 05:50:36;;;;;;;27.03;21.00;;;0.70;95.70;;;-0.43;86.43;102893.66;5027853;28;20430;-71
2023/01/25 05:53:04;;;;;;;17.67;15.77;;;0.70;95.90;;;-0.42;86.04;102895.41;5028314;28;20407;-70
2023/01/25 05:55:32;;;;;;;35.35;24.92;;;0.70;96.00;;;-0.56;86.69;102880.81;5027457;28;20407;-71
2023/01/25 05:58:00;;;;;;;36.35;25.13;;;0.60;96.30;;;-0.45;87.29;102890.22;5029817;28;20418;-71
2023/01/25 06:00:28;;;;;;;19.58;16.27;;;0.70;96.50;;;-0.45;86.69;102884.94;5031761;28;20855;-70
2023/01/25 06:03:01;;;;;;;25.87;22.00;;;0.70;96.30;;;-0.37;86.15;102885.59;5032334;28;20418;-71
2023/01/25 06:05:29;;;;;;;20.52;18.27;;;0.80;96.30;;;-0.32;85.47;102886.38;5032232;28;20399;-71
2023/01/25 06:07:58;;;;;;;19.15;16.33;;;0.80;96.20;;;-0.30;85.55;102884.53;5031854;28;20822;-71
2023/01/25 06:10:26;;;;;;;16.77;14.02;;;0.80;96.10;;;-0.30;86.00;102884.53;5031810;28;20493;-71
2023/01/25 06:12:58;;;;;;;16.95;13.75;;;0.80;96.00;;;-0.26;85.09;102880.94;5031890;28;20407;-70
2023/01/25 06:15:27;;;;;;;17.50;14.80;;;0.90;96.00;;;-0.42;85.41;102874.34;5032116;28;20406;-72
2023/01/25 06:17:57;;;;;;;18.25;14.60;;;0.70;96.00;;;-0.56;86.18;102872.94;5032007;28;20399;-71
2023/01/25 06:20:25;;;;;;;16.23;13.43;;;0.60;96.20;;;-0.56;86.37;102872.94;5032022;28;20407;-70
2023/01/25 06:22:53;;;;;;;17.15;15.18;;;0.60;96.30;;;-0.46;87.09;102877.94;5032100;28;20399;-70
2023/01/25 06:25:21;;;;;;;16.73;13.75;;;0.70;96.40;;;-0.40;85.50;102875.16;5031945;28;20407;-71
2023/01/25 06:27:49;;;;;;;17.52;15.45;;;0.70;96.20;;;-0.36;85.76;102874.19;5031604;28;20403;-71
2023/01/25 06:30:18;;;;;;;17.77;15.02;;;0.80;96.30;;;-0.36;85.34;102874.19;5031993;28;20411;-71
2023/01/25 06:32:46;;;;;;;17.30;14.60;;;0.80;96.20;;;-0.32;86.46;102870.56;5031270;28;20500;-71
2023/01/25 06:35:16;;;;;;;18.37;15.90;;;0.80;96.20;;;-0.29;86.75;102873.13;5031802;28;20397;-71
2023/01/25 06:37:44;;;;;;;17.47;15.30;;;0.80;96.40;;;-0.32;86.03;102870.56;5031603;28;20888;-71
2023/01/25 06:40:13;;;;;;;17.85;14.15;;;0.80;96.30;;;-0.38;86.75;102876.00;5031354;28;20407;-71
2023/01/25 06:42:41;;;;;;;18.93;14.73;;;0.70;96.10;;;-0.43;86.37;102872.59;5031263;28;20490;-71
2023/01/25 06:45:10;;;;;;;18.50;14.60;;;0.70;96.60;;;-0.52;87.56;102868.44;5031169;28;20406;-71
2023/01/25 06:47:40;;;;;;;20.55;15.10;;;0.70;96.60;;;-0.65;87.32;102865.22;5031268;28;20456;-71
2023/01/25 06:50:10;;;;;;;20.55;15.45;;;0.50;96.90;;;-0.68;88.03;102865.31;5031086;28;20923;-70
2023/01/25 06:52:39;;;;;;;21.85;17.10;;;0.50;97.10;;;-0.64;87.84;102864.34;5030878;28;20784;-70
2023/01/25 06:55:12;;;;;;;20.77;17.30;;;0.50;97.40;;;-0.55;87.97;102874.63;5030960;28;20934;-72
2023/01/25 06:57:40;;;;;;;18.88;14.60;;;0.60;97.40;;;-0.48;87.66;102867.47;5030629;28;20860;-71
2023/01/25 07:00:10;;;;;;;20.35;15.45;;;0.60;97.00;;;-0.44;86.90;102866.47;5031091;28;20407;-71
2023/01/25 07:02:38;;;;;;;19.77;15.77;;;0.70;97.00;;;-0.41;87.45;102871.66;5031103;28;20406;-71
2023/01/25 07:05:07;;;;;;;21.85;16.50;;;0.70;96.90;;;-0.38;87.09;102868.09;5029405;28;20422;-70
2023/01/25 07:07:36;;;;;;;22.00;16.55;;;0.80;96.90;;;-0.42;87.50;102869.09;5030585;28;20418;-72
2023/01/25 07:10:07;;;;;;;22.08;17.70;;;0.70;96.80;;;-0.38;87.77;102870.75;5030279;28;20473;-71
2023/01/25 07:12:35;;;;;;;22.45;17.60;;;0.70;97.00;;;-0.36;88.07;102866.28;5031024;28;20430;-71
2023/01/25 07:15:04;;;;;;;22.60;18.15;;;0.70;97.00;;;-0.33;87.67;102863.56;5030896;28;20407;-71
2023/01/25 07:17:32;;;;;;;22.50;18.30;;;0.80;97.00;;;-0.42;87.59;102869.09;5030513;28;20403;-71
2023/01/25 07:20:01;;;;;;;24.40;18.45;;;0.70;97.00;;;-0.49;88.05;102862.25;5030788;28;20425;-71
2023/01/25 07:22:29;;;;;;;22.92;17.67;;;0.60;97.10;;;-0.57;88.34;102860.66;5030604;28;20406;-70
2023/01/25 07:24:57;;;;;;;25.50;19.20;;;0.60;97.50;;;-0.50;88.16;102864.00;5030252;28;20951;-71
2023/01/25 07:27:27;;;;;;;24.53;18.53;;;0.60;98.00;;;-0.43;88.43;102865.56;5030310;28;20411;-70
2023/01/25 07:29:55;;;;;;;26.23;18.95;;;0.70;97.50;;;-0.40;87.59;102859.38;5030469;28;20403;-71
2023/01/25 07:32:23;;;;;;;27.40;20.05;;;0.70;97.30;;;-0.38;87.91;102860.22;5026816;28;20654;-71
2023/01/25 07:34:51;;;;;;;27.20;20.20;;;0.70;97.30;;;-0.35;88.15;102860.13;5029551;28;20407;-71
2023/01/25 07:37:19;;;;;;;28.30;21.88;;;0.80;97.30;;;-0.34;87.53;102865.34;5029733;28;20912;-71
2023/01/25 07:39:49;;;;;;;26.20;20.03;;;0.80;97.20;;;-0.30;87.27;102869.63;5030020;28;21080;-71
2023/01/25 07:42:17;;;;;;;27.58;21.63;;;0.80;97.30;;;-0.36;88.42;102868.91;5029932;28;20413;-71
2023/01/25 07:44:46;;;;;;;27.63;21.10;;;0.80;97.30;;;-0.36;89.08;102864.53;5030181;28;20406;-70
2023/01/25 07:47:15;;;;;;;25.63;19.07;;;0.80;97.60;;;-0.43;89.19;102856.81;5029937;28;20414;-71
2023/01/25 07:49:43;;;;;;;27.95;21.15;;;0.70;97.60;;;-0.51;88.05;102852.59;5030389;28;20414;-71
2023/01/25 07:52:11;;;;;;;31.87;25.10;;;0.60;97.60;;;-0.46;88.73;102849.00;5029785;28;20509;-71
2023/01/25 07:54:39;;;;;;;31.08;23.85;;;0.60;97.90;;;-0.43;88.95;102846.28;5030041;28;20411;-71
2023/01/25 07:57:07;;;;;;;28.83;21.08;;;0.70;97.80;;;-0.45;87.91;102843.72;5029793;28;20482;-71
2023/01/25 07:59:35;;;;;;;40.65;30.02;;;0.70;97.60;;;-0.42;88.17;102848.91;5029585;28;20407;-71
2023/01/25 08:02:05;;;;;;;31.08;23.10;;;0.70;97.70;;;-0.52;89.83;102847.41;5029705;28;20460;-71
2023/01/25 08:04:33;;;;;;;31.25;22.60;;;0.70;97.90;;;-0.48;89.33;102850.81;5029716;28;20410;-70
2023/01/25 08:07:01;;;;;;;30.15;23.92;;;0.70;98.20;;;-0.41;88.84;102844.50;5029435;28;20403;-72
2023/01/25 08:09:29;;;;;;;29.75;21.40;;;0.70;98.00;;;-0.44;88.14;102844.56;5029638;28;20407;-71
2023/01/25 08:11:57;;;;;;;27.63;21.60;;;0.70;97.70;;;-0.38;88.09;102849.69;5029537;28;20422;-71
2023/01/25 08:14:25;;;;;;;29.10;23.15;;;0.70;97.70;;;-0.35;89.37;102844.34;5029125;28;20428;-71
2023/01/25 08:16:53;;;;;;;30.77;21.92;;;0.80;97.80;;;-0.45;89.13;102837.59;5028915;28;20411;-71
2023/01/25 08:19:23;;;;;;;31.35;23.00;;;0.70;97.70;;;-0.49;88.50;102849.09;5029378;28;20406;-71
2023/01/25 08:21:52;;;;;;;34.17;24.48;;;0.60;97.90;;;-0.58;88.48;102843.13;5028699;28;20438;-70
2023/01/25 08:24:20;;;;;;;29.88;22.00;;;0.60;97.80;;;-0.60;90.34;102839.69;5029138;28;20419;-71
2023/01/25 08:26:51;;;;;;;31.27;22.83;;;0.60;98.20;;;-0.61;89.32;102844.97;5028961;28;20499;-72
2023/01/25 08:29:19;;;;;;;28.88;21.95;;;0.50;98.20;;;-0.58;89.10;102848.41;5029347;28;20426;-71
2023/01/25 08:31:47;;;;;;;29.73;21.80;;;0.60;98.30;;;-0.60;89.07;102834.44;5029267;28;20433;-71
2023/01/25 08:34:15;;;;;;;28.98;20.95;;;0.60;98.30;;;-0.66;89.92;102834.59;5028981;28;20831;-71
2023/01/25 08:36:45;;;;;;;26.88;19.08;;;0.50;98.20;;;-0.65;88.93;102830.19;5028768;28;20407;-71
2023/01/25 08:39:13;;;;;;;26.50;19.35;;;0.50;98.20;;;-0.60;89.02;102829.16;5028561;28;20482;-69
2023/01/25 08:41:41;;;;;;;28.02;21.08;;;0.50;98.20;;;-0.52;89.75;102827.22;5028736;28;20403;-71
2023/01/25 08:44:09;;;;;;;26.30;19.85;;;0.70;98.30;;;-0.49;89.77;102820.13;5028614;28;20910;-71
2023/01/25 08:46:37;;;;;;;29.45;21.17;;;0.70;98.00;;;-0.53;88.72;102820.22;5027432;28;20411;-72
2023/01/25 08:49:09;;;;;;;30.53;21.40;;;0.60;98.10;;;-0.56;89.47;102819.44;5022258;28;20478;-70
2023/01/25 08:51:37;;;;;;;30.55;22.73;;;0.60;98.20;;;-0.48;90.25;102820.13;5025961;28;20416;-71
2023/01/25 08:54:10;;;;;;;29.92;22.38;;;0.60;98.30;;;-0.43;88.98;102809.44;5021848;28;20473;-71
2023/01/25 08:56:40;;;;;;;29.33;21.95;;;0.70;98.20;;;-0.38;89.01;102799.69;5028225;28;20407;-71
2023/01/25 08:59:12;;;;;;;28.50;22.37;;;0.70;98.00;;;-0.33;88.32;102793.38;5011037;28;20869;-71
2023/01/25 09:01:40;;;;;;;34.27;25.33;;;0.80;97.90;;;-0.38;88.12;102797.91;5028536;28;20411;-71
2023/01/25 09:04:08;;;;;;;40.00;29.23;;;0.70;97.70;;;-0.43;89.02;102796.28;5028430;28;20884;-71
2023/01/25 09:06:37;;;;;;;40.05;28.15;;;0.70;97.90;;;-0.37;88.81;102793.50;5027635;28;20468;-72
2023/01/25 09:09:07;;;;;;;34.55;24.60;;;0.70;98.20;;;-0.36;88.44;102790.84;5026680;28;20430;-71
2023/01/25 09:11:36;;;;;;;34.40;24.45;;;0.80;98.00;;;-0.36;88.97;102782.06;5026420;28;20441;-72
2023/01/25 09:14:05;;;;;;;32.47;23.77;;;0.70;98.20;;;-0.41;89.73;102789.25;5028168;28;20430;-73
2023/01/25 09:16:33;;;;;;;38.60;26.57;;;0.70;98.10;;;-0.41;89.22;102786.59;5027535;28;20411;-71
2023/01/25 09:19:04;;;;;;;36.00;27.67;;;0.80;98.40;;;-0.35;89.49;102787.31;5026969;28;20419;-69
2023/01/25 09:21:35;;;;;;;34.67;23.88;;;0.80;98.40;;;-0.35;90.09;102787.31;5027613;28;20429;-68
2023/01/25 09:24:06;;;;;;;34.47;24.83;;;0.70;98.70;;;-0.35;89.74;102787.31;5024428;28;20407;-69
2023/01/25 09:26:39;;;;;;;38.65;27.13;;;0.80;98.30;;;-0.33;89.56;102782.84;5027704;28;20411;-69
2023/01/25 09:29:10;;;;;;;35.67;27.42;;;0.80;98.30;;;-0.27;89.50;102787.06;5028231;28;20395;-68
2023/01/25 09:31:42;;;;;;;34.30;24.70;;;0.80;98.30;;;-0.23;89.91;102778.19;5028112;28;20410;-67
2023/01/25 09:34:12;;;;;;;39.05;28.23;;;0.90;98.40;;;-0.22;88.72;102778.16;5027914;28;20418;-66
2023/01/25 09:36:40;;;;;;;40.05;28.40;;;0.90;98.20;;;-0.33;90.16;102782.00;5027769;28;20418;-69
2023/01/25 09:39:12;;;;;;;34.78;25.02;;;0.80;98.30;;;-0.33;89.27;102779.34;5027728;28;20410;-67
2023/01/25 09:42:17;;;;;;;37.53;24.92;;;0.80;98.30;;;-0.39;90.12;102766.38;5027696;28;20930;-68
2023/01/25 09:45:21;;;;;;;34.35;24.63;;;0.70;98.30;;;-0.43;90.42;102768.22;5028020;28;20414;-68
2023/01/25 09:47:59;;;;;;;35.85;25.58;;;0.70;98.60;;;-0.39;89.49;102758.47;5027967;28;20407;-69
2023/01/25 09:50:49;;;;;;;36.85;27.00;;;0.70;98.70;;;-0.37;90.99;102751.38;5027893;28;20458;-68
2023/01/25 09:53:29;;;;;;;40.53;27.98;;;0.80;98.90;;;-0.39;89.65;102746.19;5027671;28;20932;-69
2023/01/25 09:56:08;;;;;;;37.75;27.05;;;0.80;98.70;;;-0.34;89.94;102728.47;5027850;28;20415;-69
2023/01/25 09:58:43;;;;;;;36.28;25.98;;;0.80;98.80;;;-0.32;90.73;102725.81;5028132;28;20407;-70
2023/01/25 10:01:41;;;;;;;38.63;27.25;;;0.80;98.70;;;-0.31;90.90;102727.56;5027936;28;20855;-70
2023/01/25 10:04:18;;;;;;;36.15;25.42;;;0.80;98.70;;;-0.29;89.98;102728.38;5027264;28;20481;-69
2023/01/25 10:06:52;;;;;;;38.42;27.05;;;0.80;98.60;;;-0.28;90.04;102732.72;5027092;28;20398;-69
2023/01/25 10:09:39;;;;;;;35.42;26.70;;;0.80;98.70;;;-0.24;90.54;102722.06;5027396;28;20395;-67
2023/01/25 10:12:18;;;;;;;34.45;25.77;;;0.90;98.70;;;-0.29;89.46;102731.00;5028126;28;20407;-70
2023/01/25 10:14:47;;;;;;;35.43;24.93;;;0.90;98.50;;;-0.36;89.98;102718.91;5026975;28;20793;-70
2023/01/25 10:17:27;;;;;;;33.90;25.52;;;0.80;98.70;;;-0.37;90.65;102722.44;5026777;28;20417;-70
2023/01/25 10:20:17;;;;;;;34.70;24.55;;;0.80;98.80;;;-0.48;90.98;102724.53;5027656;28;20746;-70
2023/01/25 10:22:52;;;;;;;30.40;23.63;;;0.70;98.80;;;-0.39;90.90;102716.38;5026811;28;20411;-70
2023/01/25 10:25:34;;;;;;;31.67;25.13;;;0.70;98.90;;;-0.32;90.73;102717.94;5023097;28;20411;-70